Time;durP1;ratioP1;P1;durP2;ratioP2;P2;SDS_P1;SDS_P2;PMS_P1;PMS_P2;Temp;Humidity;BMP_temperature;BMP_pressure;BME280_temperature;BME280_humidity;BME280_pressure;Samples;Min_cycle;Max_cycle;Signal;HPM_P1;HPM_P2
2023/09/04 00:00:02;;;;;;;5.03;3.20;;;;;;;;;;6215876;23;20405;-72
2023/09/04 00:02:29;;;;;;;3.77;3.47;;;;;;;;;;6215837;23;20432;-71
2023/09/04 00:04:58;;;;;;;3.67;3.40;;;;;;;;;;6216218;23;20491;-71
2023/09/04 00:07:25;;;;;;;3.60;3.37;;;;;;;;;;6215732;23;20413;-71
2023/09/04 00:09:52;;;;;;;2.90;2.70;;;;;;;;;;6215849;23;20404;-72
2023/09/04 00:12:19;;;;;;;3.37;3.07;;;;;;;;;;6216386;23;20880;-72
2023/09/04 00:14:46;;;;;;;3.40;2.80;;;;;;;;;;6217777;23;20432;-72
2023/09/04 00:17:13;;;;;;;3.90;3.30;;;;;;;;;;6217779;23;20511;-72
2023/09/04 00:19:40;;;;;;;3.13;2.70;;;;;;;;;;6217797;23;20487;-72
2023/09/04 00:22:08;;;;;;;3.37;3.07;;;;;;;;;;6217493;23;20497;-72
2023/09/04 00:24:35;;;;;;;2.90;2.70;;;;;;;;;;6217185;23;20956;-71
2023/09/04 00:27:02;;;;;;;3.07;2.77;;;;;;;;;;6217714;23;20443;-71
2023/09/04 00:29:29;;;;;;;4.50;3.27;;;;;;;;;;6217748;23;20492;-72
2023/09/04 00:31:55;;;;;;;3.90;3.50;;;;;;;;;;6217678;23;20456;-72
2023/09/04 00:34:22;;;;;;;4.53;3.43;;;;;;;;;;6217548;23;20495;-72
2023/09/04 00:36:49;;;;;;;3.63;3.13;;;;;;;;;;6217702;23;20792;-72
2023/09/04 00:39:18;;;;;;;3.40;3.10;;;;;;;;;;6217497;23;20444;-71
2023/09/04 00:41:44;;;;;;;6.83;3.00;;;;;;;;;;6217556;23;20416;-72
2023/09/04 00:44:11;;;;;;;3.13;2.83;;;;;;;;;;6217422;23;20960;-72
2023/09/04 00:46:38;;;;;;;3.40;3.10;;;;;;;;;;6217613;23;20405;-72
2023/09/04 00:49:05;;;;;;;5.73;3.20;;;;;;;;;;6217532;23;20799;-71
2023/09/04 00:51:32;;;;;;;3.30;3.00;;;;;;;;;;6217824;23;20488;-72
2023/09/04 00:54:00;;;;;;;4.07;3.37;;;;;;;;;;6217233;23;20515;-72
2023/09/04 00:56:28;;;;;;;3.50;3.20;;;;;;;;;;6217836;23;20717;-71
2023/09/04 00:58:55;;;;;;;3.30;3.07;;;;;;;;;;6217272;23;20511;-72
2023/09/04 01:01:22;;;;;;;3.10;2.90;;;;;;;;;;6217358;23;20480;-72
2023/09/04 01:03:49;;;;;;;3.20;2.93;;;;;;;;;;6217588;23;20401;-71
2023/09/04 01:06:16;;;;;;;4.10;3.23;;;;;;;;;;6217379;23;20401;-71
2023/09/04 01:08:43;;;;;;;2.93;2.73;;;;;;;;;;6217361;23;20777;-72
2023/09/04 01:11:11;;;;;;;3.60;3.33;;;;;;;;;;6217297;23;20432;-72
2023/09/04 01:13:44;;;;;;;3.50;3.27;;;;;;;;;;6216647;23;20401;-72
2023/09/04 01:16:12;;;;;;;3.43;3.10;;;;;;;;;;6227416;23;20428;-72
2023/09/04 01:18:39;;;;;;;3.47;2.97;;;;;;;;;;6217062;23;20757;-71
2023/09/04 01:21:08;;;;;;;3.63;3.33;;;;;;;;;;6217170;23;20488;-72
2023/09/04 01:23:35;;;;;;;4.10;3.60;;;;;;;;;;6216444;23;20492;-72
2023/09/04 01:26:07;;;;;;;5.03;3.60;;;;;;;;;;6217164;23;20429;-72
2023/09/04 01:28:39;;;;;;;2.97;2.77;;;;;;;;;;6227026;23;20476;-72
2023/09/04 01:31:12;;;;;;;3.90;3.60;;;;;;;;;;6227023;23;20389;-71
2023/09/04 01:33:41;;;;;;;3.50;3.20;;;;;;;;;;6227213;23;20393;-72
2023/09/04 01:36:11;;;;;;;4.13;3.60;;;;;;;;;;6216981;23;20429;-72
2023/09/04 01:38:39;;;;;;;2.93;2.70;;;;;;;;;;6226923;23;20520;-72
2023/09/04 01:41:06;;;;;;;3.50;3.20;;;;;;;;;;6216986;23;20794;-72
2023/09/04 01:43:33;;;;;;;3.40;2.90;;;;;;;;;;6217367;23;20428;-72
2023/09/04 01:46:00;;;;;;;4.10;3.80;;;;;;;;;;6216820;23;20405;-72
2023/09/04 01:48:27;;;;;;;4.83;3.50;;;;;;;;;;6216966;23;20405;-72
2023/09/04 01:50:54;;;;;;;3.63;3.33;;;;;;;;;;6217026;23;20773;-72
2023/09/04 01:53:23;;;;;;;3.30;3.10;;;;;;;;;;6216570;23;20508;-72
2023/09/04 01:55:50;;;;;;;3.07;2.90;;;;;;;;;;6216707;23;20455;-72
2023/09/04 01:58:17;;;;;;;2.87;2.67;;;;;;;;;;6216774;23;20429;-71
2023/09/04 02:00:44;;;;;;;2.90;2.70;;;;;;;;;;6217117;23;20451;-71
2023/09/04 02:03:11;;;;;;;3.00;2.80;;;;;;;;;;6216915;23;20472;-72
2023/09/04 02:05:38;;;;;;;3.93;3.60;;;;;;;;;;6216838;23;20405;-72
2023/09/04 02:08:07;;;;;;;3.40;3.17;;;;;;;;;;6216989;23;20416;-72
2023/09/04 02:10:35;;;;;;;4.17;3.37;;;;;;;;;;6216643;23;20440;-72
2023/09/04 02:13:02;;;;;;;4.00;3.17;;;;;;;;;;6216551;23;20488;-71
2023/09/04 02:15:30;;;;;;;2.87;2.67;;;;;;;;;;6216700;23;20792;-72
2023/09/04 02:18:02;;;;;;;3.10;2.90;;;;;;;;;;6216549;23;20491;-72
2023/09/04 02:20:28;;;;;;;4.23;3.70;;;;;;;;;;6226551;23;20426;-72
2023/09/04 02:22:55;;;;;;;4.07;3.50;;;;;;;;;;6216570;23;20492;-72
2023/09/04 02:25:23;;;;;;;3.57;3.27;;;;;;;;;;6216620;23;20444;-72
2023/09/04 02:27:51;;;;;;;3.83;3.53;;;;;;;;;;6216154;23;20496;-72
2023/09/04 02:30:18;;;;;;;3.40;3.20;;;;;;;;;;6216501;23;20409;-72
2023/09/04 02:32:45;;;;;;;3.33;3.03;;;;;;;;;;6216397;23;20417;-72
2023/09/04 02:35:12;;;;;;;3.70;3.40;;;;;;;;;;6216381;23;20409;-72
2023/09/04 02:37:39;;;;;;;4.73;3.23;;;;;;;;;;6216457;23;20492;-72
2023/09/04 02:40:07;;;;;;;3.30;2.80;;;;;;;;;;6216452;23;20487;-71
2023/09/04 02:42:34;;;;;;;3.23;2.93;;;;;;;;;;6216277;23;20410;-72
2023/09/04 02:45:02;;;;;;;3.33;3.13;;;;;;;;;;6216434;23;20488;-72
2023/09/04 02:47:29;;;;;;;3.70;3.40;;;;;;;;;;6216284;23;20409;-72
2023/09/04 02:49:56;;;;;;;3.47;3.20;;;;;;;;;;6216390;23;20409;-71
2023/09/04 02:52:23;;;;;;;3.30;3.10;;;;;;;;;;6216035;23;20509;-72
2023/09/04 02:54:50;;;;;;;5.83;3.70;;;;;;;;;;6226103;23;20393;-72
2023/09/04 02:57:17;;;;;;;3.80;3.40;;;;;;;;;;6216324;23;20488;-72
2023/09/04 02:59:44;;;;;;;5.37;3.40;;;;;;;;;;6216582;23;20898;-72
2023/09/04 03:02:12;;;;;;;3.60;2.97;;;;;;;;;;6216226;23;20488;-72
2023/09/04 03:04:39;;;;;;;3.53;3.10;;;;;;;;;;6216272;23;20401;-72
2023/09/04 03:07:06;;;;;;;4.80;3.30;;;;;;;;;;6216241;23;20516;-71
2023/09/04 03:09:33;;;;;;;3.50;3.30;;;;;;;;;;6216113;23;20401;-71
2023/09/04 03:12:00;;;;;;;4.17;3.50;;;;;;;;;;6216090;23;20484;-72
2023/09/04 03:14:27;;;;;;;3.83;3.40;;;;;;;;;;6215601;23;20483;-72
2023/09/04 03:16:53;;;;;;;3.87;3.57;;;;;;;;;;6216102;23;20737;-72
2023/09/04 03:19:22;;;;;;;3.73;2.97;;;;;;;;;;6216034;23;20520;-71
2023/09/04 03:21:49;;;;;;;3.50;3.20;;;;;;;;;;6215997;23;20944;-71
2023/09/04 03:24:17;;;;;;;4.83;3.47;;;;;;;;;;6215913;23;20489;-72
2023/09/04 03:26:44;;;;;;;3.70;3.40;;;;;;;;;;6216351;23;20765;-72
2023/09/04 03:29:11;;;;;;;3.50;3.07;;;;;;;;;;6216013;23;20405;-72
2023/09/04 03:31:38;;;;;;;4.00;3.70;;;;;;;;;;6215682;23;20983;-71
2023/09/04 03:34:06;;;;;;;4.23;3.83;;;;;;;;;;6215904;23;20435;-72
2023/09/04 03:36:34;;;;;;;3.90;3.33;;;;;;;;;;6216149;23;20405;-71
2023/09/04 03:39:03;;;;;;;3.90;3.60;;;;;;;;;;6215437;23;20515;-72
2023/09/04 03:41:31;;;;;;;3.17;2.97;;;;;;;;;;6215937;23;20413;-72
2023/09/04 03:43:58;;;;;;;4.93;3.40;;;;;;;;;;6215834;23;20484;-72
2023/09/04 03:46:26;;;;;;;3.90;3.60;;;;;;;;;;6217126;23;20484;-72
2023/09/04 03:48:53;;;;;;;4.10;3.80;;;;;;;;;;6219184;23;20416;-72
2023/09/04 03:51:20;;;;;;;3.73;3.43;;;;;;;;;;6219340;23;20935;-72
2023/09/04 03:53:48;;;;;;;4.00;3.70;;;;;;;;;;6218700;23;20516;-72
2023/09/04 03:56:15;;;;;;;5.63;3.50;;;;;;;;;;6219135;23;20433;-72
2023/09/04 03:58:42;;;;;;;4.20;3.80;;;;;;;;;;6219175;23;20527;-71
2023/09/04 04:01:09;;;;;;;6.10;4.00;;;;;;;;;;6219247;23;20435;-72
2023/09/04 04:03:36;;;;;;;4.57;3.80;;;;;;;;;;6219130;23;20491;-72
2023/09/04 04:06:09;;;;;;;4.80;3.43;;;;;;;;;;6219338;23;20463;-72
2023/09/04 04:08:36;;;;;;;5.00;3.40;;;;;;;;;;6229161;23;20496;-72
2023/09/04 04:11:04;;;;;;;4.00;3.70;;;;;;;;;;6219579;23;20496;-71
2023/09/04 04:13:31;;;;;;;3.80;3.50;;;;;;;;;;6218995;23;20409;-71
2023/09/04 04:15:59;;;;;;;4.30;3.90;;;;;;;;;;6219178;23;20483;-71
2023/09/04 04:18:27;;;;;;;4.47;4.07;;;;;;;;;;6219023;23;20479;-71
2023/09/04 04:20:54;;;;;;;3.43;3.23;;;;;;;;;;6219057;23;20412;-71
2023/09/04 04:23:21;;;;;;;5.37;3.27;;;;;;;;;;6219098;23;20405;-71
2023/09/04 04:25:49;;;;;;;4.03;3.57;;;;;;;;;;6219442;23;20496;-71
2023/09/04 04:28:17;;;;;;;8.33;4.07;;;;;;;;;;6219023;23;20480;-71
2023/09/04 04:30:44;;;;;;;3.90;3.60;;;;;;;;;;6219001;23;20458;-71
2023/09/04 04:33:11;;;;;;;4.50;4.17;;;;;;;;;;6218941;23;20480;-71
2023/09/04 04:35:38;;;;;;;4.13;3.73;;;;;;;;;;6219357;23;20488;-71
2023/09/04 04:38:05;;;;;;;6.60;3.90;;;;;;;;;;6218988;23;20725;-72
2023/09/04 04:40:32;;;;;;;8.60;4.90;;;;;;;;;;6218849;23;20524;-71
2023/09/04 04:42:59;;;;;;;5.13;3.57;;;;;;;;;;6218811;23;20436;-71
2023/09/04 04:45:27;;;;;;;4.37;4.07;;;;;;;;;;6218881;23;20405;-71
2023/09/04 04:47:54;;;;;;;6.07;4.20;;;;;;;;;;6218521;23;20488;-71
2023/09/04 04:50:22;;;;;;;4.30;3.90;;;;;;;;;;6218903;23;20459;-71
2023/09/04 04:52:48;;;;;;;3.60;3.37;;;;;;;;;;6218472;23;20428;-71
2023/09/04 04:55:15;;;;;;;4.67;4.17;;;;;;;;;;6218949;23;20412;-71
2023/09/04 04:57:42;;;;;;;5.00;3.83;;;;;;;;;;6218167;23;20489;-72
2023/09/04 05:00:11;;;;;;;3.90;3.43;;;;;;;;;;6217234;23;20498;-71
2023/09/04 05:02:39;;;;;;;3.90;3.60;;;;;;;;;;6217015;23;20757;-71
2023/09/04 05:05:07;;;;;;;4.30;4.00;;;;;;;;;;6217247;23;20409;-71
2023/09/04 05:07:34;;;;;;;4.50;3.60;;;;;;;;;;6217120;23;20409;-71
2023/09/04 05:10:00;;;;;;;4.10;3.80;;;;;;;;;;6217132;23;20493;-71
2023/09/04 05:12:27;;;;;;;4.60;4.00;;;;;;;;;;6217208;23;20488;-71
2023/09/04 05:14:54;;;;;;;3.30;3.10;;;;;;;;;;6217051;23;20405;-71
2023/09/04 05:17:21;;;;;;;4.47;4.07;;;;;;;;;;6217119;23;20464;-71
2023/09/04 05:19:49;;;;;;;5.30;3.90;;;;;;;;;;6217326;23;20523;-71
2023/09/04 05:22:16;;;;;;;4.57;4.13;;;;;;;;;;6216986;23;20437;-71
2023/09/04 05:24:44;;;;;;;4.10;3.70;;;;;;;;;;6216884;23;20733;-71
2023/09/04 05:27:11;;;;;;;5.03;4.10;;;;;;;;;;6217067;23;20405;-71
2023/09/04 05:29:37;;;;;;;4.33;4.03;;;;;;;;;;6216934;23;20532;-71
2023/09/04 05:32:05;;;;;;;11.50;4.10;;;;;;;;;;6216882;23;20488;-72
2023/09/04 05:34:31;;;;;;;5.13;4.17;;;;;;;;;;6216865;23;20800;-71
2023/09/04 05:37:00;;;;;;;3.80;3.60;;;;;;;;;;6216934;23;20405;-71
2023/09/04 05:39:27;;;;;;;4.00;3.53;;;;;;;;;;6216336;23;21023;-71
2023/09/04 05:41:54;;;;;;;4.40;4.00;;;;;;;;;;6216801;23;20437;-71
2023/09/04 05:44:20;;;;;;;4.30;4.00;;;;;;;;;;6216713;23;20440;-72
2023/09/04 05:46:47;;;;;;;5.20;4.30;;;;;;;;;;6216836;23;20496;-71
2023/09/04 05:49:14;;;;;;;4.83;3.77;;;;;;;;;;6216661;23;20976;-71
2023/09/04 05:51:41;;;;;;;3.87;3.43;;;;;;;;;;6216702;23;20405;-71
2023/09/04 05:54:09;;;;;;;5.13;4.63;;;;;;;;;;6216333;23;20821;-71
2023/09/04 05:56:37;;;;;;;6.00;4.23;;;;;;;;;;6216631;23;20729;-72
2023/09/04 05:59:05;;;;;;;3.63;3.40;;;;;;;;;;6216682;23;20512;-72
2023/09/04 06:01:32;;;;;;;4.63;4.17;;;;;;;;;;6216609;23;20693;-71
2023/09/04 06:03:59;;;;;;;8.10;7.30;;;;;;;;;;6216627;23;20492;-71
2023/09/04 06:06:26;;;;;;;5.27;4.87;;;;;;;;;;6216738;23;20484;-72
2023/09/04 06:08:52;;;;;;;5.73;4.10;;;;;;;;;;6216599;23;20460;-72
2023/09/04 06:11:21;;;;;;;4.73;4.43;;;;;;;;;;6216528;23;20405;-72
2023/09/04 06:13:48;;;;;;;3.90;3.57;;;;;;;;;;6216018;23;20897;-72
2023/09/04 06:16:15;;;;;;;6.27;4.77;;;;;;;;;;6216553;23;20405;-72
2023/09/04 06:18:42;;;;;;;4.60;4.30;;;;;;;;;;6216568;23;20496;-72
2023/09/04 06:21:09;;;;;;;4.90;3.93;;;;;;;;;;6216428;23;20428;-72
2023/09/04 06:23:36;;;;;;;4.93;3.43;;;;;;;;;;6216384;23;20401;-72
2023/09/04 06:26:03;;;;;;;3.83;3.40;;;;;;;;;;6216433;23;20483;-72
2023/09/04 06:28:32;;;;;;;4.00;3.50;;;;;;;;;;6216442;23;20401;-72
2023/09/04 06:30:59;;;;;;;7.13;3.00;;;;;;;;;;6216454;23;20487;-72
2023/09/04 06:33:26;;;;;;;4.60;3.63;;;;;;;;;;6215952;23;20703;-72
2023/09/04 06:35:53;;;;;;;3.47;3.17;;;;;;;;;;6216454;23;20404;-72
2023/09/04 06:38:20;;;;;;;3.70;3.40;;;;;;;;;;6216401;23;20476;-72
2023/09/04 06:40:47;;;;;;;3.00;2.80;;;;;;;;;;6216265;23;20476;-72
2023/09/04 06:43:14;;;;;;;3.40;3.20;;;;;;;;;;6216209;23;20495;-72
2023/09/04 06:45:42;;;;;;;3.17;2.97;;;;;;;;;;6216291;23;20405;-72
2023/09/04 06:48:09;;;;;;;3.47;3.20;;;;;;;;;;6216090;23;20968;-71
2023/09/04 06:50:36;;;;;;;3.37;3.07;;;;;;;;;;6216195;23;20401;-71
2023/09/04 06:53:03;;;;;;;3.53;3.33;;;;;;;;;;6215629;23;20816;-72
2023/09/04 06:55:30;;;;;;;4.43;4.03;;;;;;;;;;6216030;23;20433;-62
2023/09/04 06:57:57;;;;;;;5.50;4.03;;;;;;;;;;6216094;23;20497;-62
2023/09/04 07:00:25;;;;;;;3.50;3.17;;;;;;;;;;6216001;23;20448;-63
2023/09/04 07:02:53;;;;;;;3.90;2.80;;;;;;;;;;6215905;23;20412;-62
2023/09/04 07:05:20;;;;;;;3.43;3.13;;;;;;;;;;6216000;23;20484;-62
2023/09/04 07:07:47;;;;;;;4.13;3.17;;;;;;;;;;6215779;23;20484;-62
2023/09/04 07:10:14;;;;;;;5.33;3.70;;;;;;;;;;6215936;23;20409;-62
2023/09/04 07:12:41;;;;;;;4.13;2.50;;;;;;;;;;6215999;23;20743;-63
2023/09/04 07:15:08;;;;;;;2.80;2.60;;;;;;;;;;6216224;23;20500;-63
2023/09/04 07:17:35;;;;;;;3.50;3.00;;;;;;;;;;6215821;23;20698;-63
2023/09/04 07:20:04;;;;;;;3.00;2.80;;;;;;;;;;6215414;23;20523;-62
2023/09/04 07:22:31;;;;;;;2.60;2.40;;;;;;;;;;6215301;23;20770;-62
2023/09/04 07:24:58;;;;;;;2.83;2.47;;;;;;;;;;6215879;23;20496;-62
2023/09/04 07:27:26;;;;;;;2.10;1.90;;;;;;;;;;6215925;23;20480;-62
2023/09/04 07:29:53;;;;;;;2.40;2.20;;;;;;;;;;6215836;23;20405;-62
2023/09/04 07:32:20;;;;;;;3.70;2.57;;;;;;;;;;6215942;23;20488;-63
2023/09/04 07:34:47;;;;;;;2.63;2.00;;;;;;;;;;6216193;23;20493;-62
2023/09/04 07:37:15;;;;;;;3.10;2.53;;;;;;;;;;6215579;23;20443;-62
2023/09/04 07:39:42;;;;;;;1.93;1.73;;;;;;;;;;6215661;23;20429;-62
2023/09/04 07:42:09;;;;;;;2.03;1.93;;;;;;;;;;6215817;23;20484;-63
2023/09/04 07:44:36;;;;;;;1.87;1.77;;;;;;;;;;6215725;23;20455;-63
2023/09/04 07:47:03;;;;;;;2.77;2.13;;;;;;;;;;6215809;23;20488;-62
2023/09/04 07:49:30;;;;;;;2.20;2.00;;;;;;;;;;6215817;23;20409;-62
2023/09/04 07:51:57;;;;;;;2.10;2.00;;;;;;;;;;6215771;23;20439;-63
2023/09/04 07:54:26;;;;;;;2.20;1.63;;;;;;;;;;6225666;23;20456;-63
2023/09/04 07:56:53;;;;;;;1.80;1.70;;;;;;;;;;6215731;23;20493;-63
2023/09/04 07:59:20;;;;;;;2.30;2.10;;;;;;;;;;6215727;23;20412;-62
2023/09/04 08:01:47;;;;;;;2.70;1.50;;;;;;;;;;6215917;23;20463;-63
2023/09/04 08:04:15;;;;;;;2.50;1.90;;;;;;;;;;6215364;23;20968;-62
2023/09/04 08:06:42;;;;;;;2.13;1.70;;;;;;;;;;6215669;23;20463;-62
2023/09/04 08:09:09;;;;;;;2.20;2.10;;;;;;;;;;6216089;23;20491;-63
2023/09/04 08:11:37;;;;;;;3.43;2.70;;;;;;;;;;6215661;23;20496;-62
2023/09/04 08:14:04;;;;;;;3.73;2.13;;;;;;;;;;6215046;23;20500;-62
2023/09/04 08:16:31;;;;;;;2.00;1.90;;;;;;;;;;6215684;23;20447;-62
2023/09/04 08:18:58;;;;;;;2.83;2.00;;;;;;;;;;6215529;23;20487;-62
2023/09/04 08:21:25;;;;;;;1.97;1.80;;;;;;;;;;6215512;23;20516;-62
2023/09/04 08:23:51;;;;;;;1.70;1.60;;;;;;;;;;6215527;23;20439;-62
2023/09/04 08:26:18;;;;;;;2.57;2.37;;;;;;;;;;6215610;23;20790;-62
2023/09/04 08:28:46;;;;;;;2.00;1.90;;;;;;;;;;6215575;23;20496;-63
2023/09/04 08:31:13;;;;;;;1.80;1.70;;;;;;;;;;6215442;23;20492;-62
2023/09/04 08:33:40;;;;;;;2.10;2.00;;;;;;;;;;6216662;23;20792;-62
2023/09/04 08:36:07;;;;;;;2.23;2.03;;;;;;;;;;6217587;23;20487;-62
2023/09/04 08:38:34;;;;;;;2.43;2.23;;;;;;;;;;6217412;23;20488;-62
2023/09/04 08:41:02;;;;;;;2.20;2.00;;;;;;;;;;6216995;23;20448;-62
2023/09/04 08:43:31;;;;;;;2.50;1.90;;;;;;;;;;6217256;23;20416;-62
2023/09/04 08:46:00;;;;;;;1.67;1.57;;;;;;;;;;6217561;23;20404;-62
2023/09/04 08:48:30;;;;;;;2.03;1.93;;;;;;;;;;6217107;23;20405;-62
2023/09/04 08:50:57;;;;;;;2.40;1.57;;;;;;;;;;6217109;23;20405;-62
2023/09/04 08:53:24;;;;;;;2.73;1.70;;;;;;;;;;6216985;23;20508;-62
2023/09/04 08:55:51;;;;;;;2.83;1.80;;;;;;;;;;6217171;23;20833;-62
2023/09/04 08:58:18;;;;;;;1.83;1.50;;;;;;;;;;6217333;23;20787;-62
2023/09/04 09:00:47;;;;;;;1.87;1.77;;;;;;;;;;6217026;23;20476;-62
2023/09/04 09:03:16;;;;;;;1.63;1.40;;;;;;;;;;6217040;23;20412;-62
2023/09/04 09:05:43;;;;;;;1.77;1.30;;;;;;;;;;6217134;23;20437;-62
2023/09/04 09:08:10;;;;;;;2.00;1.63;;;;;;;;;;6216861;23;20493;-62
2023/09/04 09:10:37;;;;;;;2.23;1.70;;;;;;;;;;6217155;23;20796;-62
2023/09/04 09:13:04;;;;;;;2.13;1.90;;;;;;;;;;6216936;23;20489;-62
2023/09/04 09:15:32;;;;;;;3.10;1.70;;;;;;;;;;6217134;23;20405;-62
2023/09/04 09:17:59;;;;;;;2.83;1.80;;;;;;;;;;6216988;23;20488;-62
2023/09/04 09:20:34;;;;;;;2.60;1.47;;;;;;;;;;6216936;23;20433;-62
2023/09/04 09:23:01;;;;;;;1.97;1.60;;;;;;;;;;6216904;23;20411;-62
2023/09/04 09:25:28;;;;;;;2.10;2.00;;;;;;;;;;6216900;23;20433;-62
2023/09/04 09:28:00;;;;;;;1.90;1.80;;;;;;;;;;6216919;23;20412;-62
2023/09/04 09:30:29;;;;;;;2.07;1.70;;;;;;;;;;6216929;23;20417;-63
2023/09/04 09:32:58;;;;;;;2.00;1.83;;;;;;;;;;6216763;23;20785;-63
2023/09/04 09:35:25;;;;;;;2.10;1.63;;;;;;;;;;6216374;23;20534;-62
2023/09/04 09:37:54;;;;;;;3.07;2.00;;;;;;;;;;6217012;23;20409;-62
2023/09/04 09:40:22;;;;;;;1.60;1.50;;;;;;;;;;6216664;23;20433;-63
2023/09/04 09:42:49;;;;;;;1.90;1.80;;;;;;;;;;6216706;23;20416;-62
2023/09/04 09:45:16;;;;;;;2.23;2.03;;;;;;;;;;6216355;23;20789;-62
2023/09/04 09:47:43;;;;;;;2.20;1.97;;;;;;;;;;6216749;23;20496;-62
2023/09/04 09:50:10;;;;;;;2.00;1.90;;;;;;;;;;6215768;23;20508;-62
2023/09/04 09:52:37;;;;;;;2.23;2.03;;;;;;;;;;6216302;23;20265;-62
2023/09/04 09:55:07;;;;;;;4.03;2.43;;;;;;;;;;6216691;23;20496;-60
2023/09/04 09:57:35;;;;;;;2.20;2.00;;;;;;;;;;6216514;23;20492;-63
2023/09/04 10:00:02;;;;;;;2.17;1.97;;;;;;;;;;6216555;23;20785;-62
2023/09/04 10:02:29;;;;;;;3.20;2.43;;;;;;;;;;6216305;23;20905;-61
2023/09/04 10:04:56;;;;;;;2.00;1.80;;;;;;;;;;6216462;23;20405;-62
2023/09/04 10:07:26;;;;;;;3.50;2.13;;;;;;;;;;6216607;23;20401;-64
2023/09/04 10:09:59;;;;;;;3.20;2.00;;;;;;;;;;6216880;23;20782;-64
2023/09/04 10:12:30;;;;;;;2.03;1.83;;;;;;;;;;6226470;23;20745;-64
2023/09/04 10:14:58;;;;;;;2.10;1.43;;;;;;;;;;6226680;23;20485;-63
2023/09/04 10:17:30;;;;;;;3.13;1.70;;;;;;;;;;6216464;23;20488;-63
2023/09/04 10:19:59;;;;;;;2.00;1.80;;;;;;;;;;6226383;23;20792;-63
2023/09/04 10:22:26;;;;;;;3.10;2.10;;;;;;;;;;6216160;23;20491;-64
2023/09/04 10:24:57;;;;;;;2.50;2.07;;;;;;;;;;6216429;23;20488;-64
2023/09/04 10:27:27;;;;;;;2.20;1.93;;;;;;;;;;6225864;23;20484;-64
2023/09/04 10:29:57;;;;;;;2.47;1.70;;;;;;;;;;6216241;23;20421;-63
2023/09/04 10:32:24;;;;;;;3.63;1.87;;;;;;;;;;6226157;23;20765;-64
2023/09/04 10:34:51;;;;;;;3.30;2.17;;;;;;;;;;6216249;23;20492;-62
2023/09/04 10:37:18;;;;;;;2.40;2.30;;;;;;;;;;6216319;23;20484;-63
2023/09/04 10:39:45;;;;;;;2.40;2.10;;;;;;;;;;6216151;23;20488;-63
2023/09/04 10:42:13;;;;;;;3.17;2.50;;;;;;;;;;6216167;23;20507;-63
2023/09/04 10:44:46;;;;;;;2.43;2.23;;;;;;;;;;6216103;23;20412;-63
2023/09/04 10:47:14;;;;;;;2.70;2.43;;;;;;;;;;6216268;23;20413;-63
2023/09/04 10:49:42;;;;;;;2.13;1.93;;;;;;;;;;6215969;23;20437;-62
2023/09/04 10:52:09;;;;;;;3.20;2.20;;;;;;;;;;6215830;23;20412;-63
2023/09/04 10:54:36;;;;;;;2.30;2.10;;;;;;;;;;6225857;23;20472;-62
2023/09/04 10:57:06;;;;;;;2.33;1.80;;;;;;;;;;6216164;23;20428;-62
2023/09/04 10:59:53;;;;;;;3.60;2.30;;;;;;;;;;6215920;23;20412;-63
2023/09/04 11:02:28;;;;;;;2.97;2.77;;;;;;;;;;6215548;23;20520;-62
2023/09/04 11:04:56;;;;;;;3.40;3.20;;;;;;;;;;6215724;23;20408;-62
2023/09/04 11:07:30;;;;;;;4.23;3.80;;;;;;;;;;6216283;23;20491;-62
2023/09/04 11:10:04;;;;;;;4.77;3.20;;;;;;;;;;6215892;23;20433;-63
2023/09/04 11:12:33;;;;;;;3.50;3.00;;;;;;;;;;6215868;23;20408;-62
2023/09/04 11:15:00;;;;;;;3.47;3.17;;;;;;;;;;6215901;23;20794;-62
2023/09/04 11:17:31;;;;;;;3.30;2.63;;;;;;;;;;6215968;23;20455;-62
2023/09/04 11:19:58;;;;;;;4.17;2.37;;;;;;;;;;6225834;23;20421;-62
2023/09/04 11:22:25;;;;;;;2.43;2.00;;;;;;;;;;6215802;23;20848;-62
2023/09/04 11:24:53;;;;;;;4.17;3.33;;;;;;;;;;6216005;23;20433;-62
2023/09/04 11:27:20;;;;;;;3.50;3.30;;;;;;;;;;6215887;23;20412;-63
2023/09/04 11:29:48;;;;;;;2.60;2.40;;;;;;;;;;6215952;23;20411;-62
2023/09/04 11:32:15;;;;;;;3.57;2.40;;;;;;;;;;6215821;23;20547;-62
2023/09/04 11:34:44;;;;;;;3.07;2.80;;;;;;;;;;6215735;23;20483;-62
2023/09/04 11:37:12;;;;;;;3.13;2.40;;;;;;;;;;6215775;23;20495;-62
2023/09/04 11:39:52;;;;;;;2.63;2.53;;;;;;;;;;6215902;23;20411;-63
2023/09/04 11:42:20;;;;;;;3.07;2.87;;;;;;;;;;6225647;23;20433;-63
2023/09/04 11:44:48;;;;;;;2.63;2.43;;;;;;;;;;6215985;23;20408;-63
2023/09/04 11:47:15;;;;;;;3.20;2.47;;;;;;;;;;6215381;23;20951;-62
2023/09/04 11:49:42;;;;;;;2.97;2.40;;;;;;;;;;6215794;23;20436;-63
2023/09/04 11:52:11;;;;;;;2.10;2.00;;;;;;;;;;6215601;23;20496;-63
2023/09/04 11:54:38;;;;;;;4.30;2.40;;;;;;;;;;6225543;23;20480;-63
2023/09/04 11:57:05;;;;;;;2.47;2.00;;;;;;;;;;6215705;23;20411;-63
2023/09/04 11:59:34;;;;;;;2.73;2.53;;;;;;;;;;6215782;23;20528;-63
2023/09/04 12:02:02;;;;;;;3.37;3.07;;;;;;;;;;6215491;23;20440;-64
2023/09/04 12:04:31;;;;;;;2.60;2.30;;;;;;;;;;6215781;23;20776;-63
2023/09/04 12:06:59;;;;;;;3.90;3.07;;;;;;;;;;6215208;23;20483;-63
2023/09/04 12:09:27;;;;;;;2.90;2.70;;;;;;;;;;6217550;23;20759;-63
2023/09/04 12:11:54;;;;;;;3.00;2.80;;;;;;;;;;6217875;23;20443;-63
2023/09/04 12:14:21;;;;;;;2.70;2.43;;;;;;;;;;6217623;23;20488;-62
2023/09/04 12:16:48;;;;;;;2.90;2.70;;;;;;;;;;6217751;23;20802;-63
2023/09/04 12:19:16;;;;;;;2.20;2.00;;;;;;;;;;6217582;23;20500;-63
2023/09/04 12:21:43;;;;;;;3.23;2.93;;;;;;;;;;6217441;23;20796;-63
2023/09/04 12:24:13;;;;;;;2.93;2.70;;;;;;;;;;6217225;23;20416;-63
2023/09/04 12:26:42;;;;;;;2.87;2.57;;;;;;;;;;6217965;23;20444;-61
2023/09/04 12:29:09;;;;;;;2.73;2.53;;;;;;;;;;6217307;23;20499;-61
2023/09/04 12:31:36;;;;;;;3.00;2.80;;;;;;;;;;6217341;23;20488;-62
2023/09/04 12:34:04;;;;;;;2.77;2.57;;;;;;;;;;6217477;23;20483;-62
2023/09/04 12:36:31;;;;;;;2.80;2.60;;;;;;;;;;6217024;23;20413;-62
2023/09/04 12:38:58;;;;;;;1.90;1.80;;;;;;;;;;6217010;23;20962;-61
2023/09/04 12:41:25;;;;;;;2.33;2.10;;;;;;;;;;6217362;23;20507;-62
2023/09/04 12:43:53;;;;;;;1.90;1.80;;;;;;;;;;6217160;23;20769;-61
2023/09/04 12:46:20;;;;;;;2.20;2.00;;;;;;;;;;6217219;23;20508;-61
2023/09/04 12:48:47;;;;;;;2.23;2.03;;;;;;;;;;6217446;23;20488;-61
2023/09/04 12:51:14;;;;;;;2.00;1.90;;;;;;;;;;6217326;23;20495;-61
2023/09/04 12:53:41;;;;;;;2.30;2.10;;;;;;;;;;6216849;23;20428;-61
2023/09/04 12:56:08;;;;;;;3.40;2.03;;;;;;;;;;6217091;23;20496;-61
2023/09/04 12:58:35;;;;;;;2.30;2.20;;;;;;;;;;6216480;23;20409;-61
2023/09/04 13:01:05;;;;;;;3.40;1.90;;;;;;;;;;6217025;23;20500;-61
2023/09/04 13:03:32;;;;;;;4.90;2.20;;;;;;;;;;6216825;23;20411;-61
2023/09/04 13:05:58;;;;;;;2.00;1.90;;;;;;;;;;6217134;23;20491;-61
2023/09/04 13:08:25;;;;;;;1.90;1.80;;;;;;;;;;6217184;23;20488;-61
2023/09/04 13:10:53;;;;;;;2.30;2.10;;;;;;;;;;6216664;23;20981;-61
2023/09/04 13:13:20;;;;;;;2.20;1.83;;;;;;;;;;6216771;23;20409;-62
2023/09/04 13:15:47;;;;;;;6.50;2.87;;;;;;;;;;6217266;23;20437;-61
2023/09/04 13:18:15;;;;;;;1.90;1.80;;;;;;;;;;6216858;23;20439;-61
2023/09/04 13:20:42;;;;;;;2.47;1.80;;;;;;;;;;6216391;23;20507;-61
2023/09/04 13:23:09;;;;;;;2.67;1.73;;;;;;;;;;6217076;23;20440;-61
2023/09/04 13:25:36;;;;;;;1.70;1.60;;;;;;;;;;6216924;23;21203;-61
2023/09/04 13:28:04;;;;;;;1.87;1.67;;;;;;;;;;6216832;23;20483;-61
2023/09/04 13:30:31;;;;;;;1.70;1.60;;;;;;;;;;6216843;23;20437;-61
2023/09/04 13:32:58;;;;;;;1.80;1.70;;;;;;;;;;6216707;23;20440;-61
2023/09/04 13:35:26;;;;;;;1.73;1.63;;;;;;;;;;6216846;23;20484;-61
2023/09/04 13:37:53;;;;;;;1.80;1.70;;;;;;;;;;6216734;23;20432;-62
2023/09/04 13:40:20;;;;;;;2.90;2.10;;;;;;;;;;6216897;23;20484;-61
2023/09/04 13:42:47;;;;;;;4.80;2.17;;;;;;;;;;6216702;23;20524;-61
2023/09/04 13:45:14;;;;;;;1.77;1.67;;;;;;;;;;6216839;23;20516;-61
2023/09/04 13:47:40;;;;;;;1.77;1.67;;;;;;;;;;6216611;23;20481;-61
2023/09/04 13:50:08;;;;;;;2.00;1.90;;;;;;;;;;6216752;23;20491;-61
2023/09/04 13:52:36;;;;;;;2.33;2.03;;;;;;;;;;6216364;23;20429;-62
2023/09/04 13:55:03;;;;;;;1.90;1.80;;;;;;;;;;6216729;23;20401;-62
2023/09/04 13:57:30;;;;;;;3.20;2.03;;;;;;;;;;6216761;23;20698;-62
2023/09/04 13:59:58;;;;;;;1.80;1.70;;;;;;;;;;6216567;23;20401;-61
2023/09/04 14:02:25;;;;;;;2.08;1.88;;;;;;;;;;6215963;23;20500;-61
2023/09/04 14:04:52;;;;;;;2.23;1.97;;;;;;;;;;6216674;23;20250;-61
2023/09/04 14:07:19;;;;;;;3.60;3.30;;;;;;;;;;6216558;23;20488;-61
2023/09/04 14:09:47;;;;;;;2.13;2.03;;;;;;;;;;6216338;23;20436;-61
2023/09/04 14:12:15;;;;;;;2.30;2.20;;;;;;;;;;6216445;23;20496;-61
2023/09/04 14:14:42;;;;;;;2.10;2.00;;;;;;;;;;6216790;23;20405;-61
2023/09/04 14:17:08;;;;;;;2.17;1.97;;;;;;;;;;6216614;23;20521;-61
2023/09/04 14:19:35;;;;;;;1.83;1.73;;;;;;;;;;6216605;23;20488;-61
2023/09/04 14:22:02;;;;;;;4.10;1.90;;;;;;;;;;6216525;23;20508;-61
2023/09/04 14:24:30;;;;;;;3.10;2.20;;;;;;;;;;6216363;23;20432;-61
2023/09/04 14:26:58;;;;;;;2.17;1.97;;;;;;;;;;6216114;23;20924;-61
2023/09/04 14:29:25;;;;;;;1.80;1.70;;;;;;;;;;6216543;23;20487;-61
2023/09/04 14:31:52;;;;;;;1.97;1.40;;;;;;;;;;6216294;23;20492;-61
2023/09/04 14:34:18;;;;;;;1.30;1.20;;;;;;;;;;6216254;23;20496;-61
2023/09/04 14:36:45;;;;;;;1.53;1.43;;;;;;;;;;6216510;23;20488;-62
2023/09/04 14:39:12;;;;;;;1.60;1.50;;;;;;;;;;6216446;23;20491;-61
2023/09/04 14:41:38;;;;;;;2.23;1.30;;;;;;;;;;6216307;23;21105;-61
2023/09/04 14:44:07;;;;;;;1.40;1.30;;;;;;;;;;6216539;23;20409;-61